createdAt,value
2023-05-11T00:01:48.705Z,7.96
2023-05-11T00:06:16.794Z,8.00
2023-05-11T00:10:40.710Z,7.92
2023-05-11T00:15:05.046Z,7.86
2023-05-11T00:19:29.097Z,7.89
2023-05-11T00:23:53.999Z,7.84
2023-05-11T00:28:19.393Z,7.83
2023-05-11T00:32:44.868Z,7.84
2023-05-11T00:37:10.868Z,7.89
2023-05-11T00:41:27.609Z,7.89
2023-05-11T00:45:51.513Z,7.89
2023-05-11T00:50:15.570Z,7.86
2023-05-11T00:54:40.929Z,7.84
2023-05-11T00:59:05.922Z,7.87
2023-05-11T01:03:31.979Z,7.81
2023-05-11T01:08:04.629Z,7.74
2023-05-11T01:12:34.523Z,7.74
2023-05-11T01:17:00.602Z,7.74
2023-05-11T01:21:28.292Z,7.75
2023-05-11T01:26:25.499Z,7.71
2023-05-11T01:30:52.165Z,7.67
2023-05-11T01:35:36.044Z,7.66
2023-05-11T01:40:22.316Z,7.66
2023-05-11T01:44:47.536Z,7.65
2023-05-11T01:49:11.530Z,7.58
2023-05-11T01:53:36.427Z,7.52
2023-05-11T01:58:01.366Z,7.45
2023-05-11T02:02:27.473Z,7.41
2023-05-11T02:06:54.006Z,7.37
2023-05-11T02:10:57.557Z,7.28
2023-05-11T02:15:21.656Z,7.18
2023-05-11T02:19:45.599Z,7.13
2023-05-11T02:24:09.490Z,7.13
2023-05-11T02:28:37.793Z,7.02
2023-05-11T02:33:01.790Z,6.93
2023-05-11T02:37:25.885Z,6.91
2023-05-11T02:41:50.811Z,6.92
2023-05-11T02:46:14.829Z,6.93
2023-05-11T02:50:42.896Z,6.98
2023-05-11T02:55:09.362Z,6.99
2023-05-11T02:59:12.966Z,6.94
2023-05-11T03:03:37.090Z,6.90
2023-05-11T03:08:01.146Z,6.89
2023-05-11T03:12:27.197Z,6.88
2023-05-11T03:16:51.099Z,6.85
2023-05-11T03:21:09.160Z,6.79
2023-05-11T03:25:35.086Z,6.74
2023-05-11T03:29:59.063Z,6.72
2023-05-11T03:34:24.967Z,6.76
2023-05-11T03:38:50.086Z,6.83
2023-05-11T03:43:14.050Z,6.92
2023-05-11T03:47:40.123Z,7.07
2023-05-11T03:52:04.115Z,7.09
2023-05-11T03:56:28.111Z,7.06
2023-05-11T04:00:53.130Z,7.07
2023-05-11T04:05:17.033Z,7.18
2023-05-11T04:09:40.847Z,7.28
2023-05-11T04:14:05.702Z,7.44
2023-05-11T04:18:30.730Z,7.57
2023-05-11T04:22:56.718Z,7.71
2023-05-11T04:27:21.543Z,7.85
2023-05-11T04:31:47.463Z,8.01
2023-05-11T04:36:12.982Z,8.20
2023-05-11T04:40:38.449Z,8.39
2023-05-11T04:45:03.312Z,8.61
2023-05-11T04:49:28.333Z,8.79
2023-05-11T04:53:52.416Z,9.00
2023-05-11T04:58:21.743Z,9.24
2023-05-11T05:02:45.598Z,9.50
2023-05-11T05:07:11.577Z,9.75
2023-05-11T05:11:35.428Z,10.01
2023-05-11T05:15:59.419Z,10.28
2023-05-11T05:20:25.478Z,10.57
2023-05-11T05:24:49.384Z,10.89
2023-05-11T05:29:16.260Z,11.26
2023-05-11T05:33:40.146Z,11.64
2023-05-11T05:38:04.042Z,12.13
2023-05-11T05:42:29.095Z,12.58
2023-05-11T05:47:00.712Z,13.00
2023-05-11T05:51:30.581Z,13.45
2023-05-11T05:55:57.578Z,13.84
2023-05-11T06:00:22.574Z,14.30
2023-05-11T06:04:49.429Z,14.58
2023-05-11T06:09:13.492Z,14.78
2023-05-11T06:13:38.610Z,14.98
2023-05-11T06:18:02.644Z,15.11
2023-05-11T06:22:26.749Z,15.38
2023-05-11T06:26:59.855Z,15.49
2023-05-11T06:31:23.899Z,15.66
2023-05-11T06:35:47.998Z,15.89
2023-05-11T06:40:13.085Z,16.00
2023-05-11T06:44:36.975Z,16.01
2023-05-11T06:49:00.840Z,16.13
2023-05-11T06:53:17.828Z,16.33
2023-05-11T06:57:41.488Z,16.46
2023-05-11T07:02:05.449Z,16.40
2023-05-11T07:06:29.348Z,16.57
2023-05-11T07:10:54.425Z,16.74
2023-05-11T07:15:18.320Z,16.72
2023-05-11T07:19:42.241Z,16.78
2023-05-11T07:24:15.105Z,16.92
2023-05-11T07:29:23.804Z,17.26
2023-05-11T07:34:33.274Z,17.38
2023-05-11T07:39:55.391Z,17.46
2023-05-11T07:50:17.155Z,17.70
2023-05-11T07:55:55.000Z,17.81
2023-05-11T08:01:05.205Z,17.93
2023-05-11T08:06:17.012Z,18.03
2023-05-11T08:11:02.879Z,18.33
2023-05-11T08:16:27.929Z,18.59
2023-05-11T08:21:38.251Z,18.93
2023-05-11T08:26:56.610Z,18.81
2023-05-11T08:32:08.292Z,18.39
2023-05-11T08:37:17.478Z,18.08
2023-05-11T08:42:46.059Z,18.52
2023-05-11T08:47:59.769Z,18.67
2023-05-11T08:53:22.568Z,18.55
2023-05-11T08:58:12.562Z,18.31
2023-05-11T09:02:36.495Z,18.15
2023-05-11T09:07:00.607Z,18.15
2023-05-11T09:11:24.514Z,18.38
2023-05-11T09:15:48.632Z,18.72
2023-05-11T09:20:12.608Z,18.86
2023-05-11T09:24:36.945Z,19.07
2023-05-11T09:29:06.505Z,19.25
2023-05-11T09:33:33.108Z,19.45
2023-05-11T09:37:57.046Z,19.41
2023-05-11T09:42:22.043Z,19.13
2023-05-11T09:46:47.878Z,19.29
2023-05-11T09:51:19.900Z,19.58
2023-05-11T09:55:43.768Z,19.82
2023-05-11T10:00:14.503Z,19.80
2023-05-11T10:04:48.178Z,19.50
2023-05-11T10:09:12.104Z,18.81
2023-05-11T10:13:36.110Z,19.09
2023-05-11T10:18:01.186Z,19.35
2023-05-11T10:22:25.251Z,19.51
2023-05-11T10:26:49.086Z,19.56
2023-05-11T10:31:13.176Z,19.67
2023-05-11T10:35:24.306Z,19.77
2023-05-11T10:39:50.117Z,19.90
2023-05-11T10:44:23.655Z,19.98
2023-05-11T10:48:56.512Z,20.18
2023-05-11T10:53:33.170Z,19.97
2023-05-11T10:58:24.195Z,19.82
2023-05-11T11:02:48.134Z,19.75
2023-05-11T11:07:24.929Z,19.37
2023-05-11T11:12:11.056Z,19.26
2023-05-11T11:16:33.519Z,19.17
2023-05-11T11:20:57.429Z,18.77
2023-05-11T11:25:40.051Z,18.56
2023-05-11T11:30:09.659Z,18.20
2023-05-11T11:34:33.316Z,18.16
2023-05-11T11:39:03.155Z,18.13
2023-05-11T11:43:32.954Z,18.28
2023-05-11T11:47:55.346Z,18.32
2023-05-11T11:52:19.008Z,18.29
2023-05-11T11:56:50.058Z,18.25
2023-05-11T12:01:57.738Z,18.47
2023-05-11T12:07:02.814Z,18.75
2023-05-11T12:12:08.514Z,18.78
2023-05-11T12:17:24.172Z,19.10
2023-05-11T12:22:21.558Z,19.11
2023-05-11T12:27:44.101Z,19.02
2023-05-11T12:32:56.920Z,19.31
2023-05-11T12:37:58.452Z,19.53
2023-05-11T12:43:06.853Z,19.80
2023-05-11T12:48:13.750Z,19.89
2023-05-11T12:53:22.727Z,19.70
2023-05-11T12:58:51.403Z,19.57
2023-05-11T13:04:01.369Z,19.19
2023-05-11T13:09:14.598Z,18.93
2023-05-11T13:14:28.345Z,18.96
2023-05-11T13:19:44.260Z,18.87
2023-05-11T13:25:12.293Z,18.66
2023-05-11T13:34:53.854Z,18.90
2023-05-11T13:39:54.702Z,18.93
2023-05-11T13:44:29.185Z,19.07
2023-05-11T13:49:26.518Z,19.03
2023-05-11T13:53:58.698Z,18.96
2023-05-11T13:58:29.007Z,18.93
2023-05-11T14:03:00.486Z,18.91
2023-05-11T14:07:35.507Z,18.86
2023-05-11T14:12:17.896Z,18.77
2023-05-11T14:16:58.076Z,18.75
2023-05-11T14:22:01.384Z,18.68
2023-05-11T14:26:34.008Z,18.62
2023-05-11T14:41:17.778Z,18.40
2023-05-11T14:46:12.523Z,18.22
2023-05-11T14:50:37.502Z,18.18
2023-05-11T14:55:10.199Z,18.20
2023-05-11T14:59:51.303Z,18.30
2023-05-11T15:04:22.910Z,18.33
2023-05-11T15:08:47.889Z,18.21
2023-05-11T15:13:17.495Z,18.17
2023-05-11T15:17:46.683Z,18.11
2023-05-11T15:22:11.674Z,18.08
2023-05-11T15:26:35.622Z,17.96
2023-05-11T15:30:59.497Z,17.98
2023-05-11T15:35:30.574Z,17.93
2023-05-11T15:40:08.730Z,17.92
2023-05-11T15:44:38.349Z,17.92
2023-05-11T15:49:05.389Z,17.86
2023-05-11T15:53:32.586Z,17.79
2023-05-11T15:57:56.460Z,17.73
2023-05-11T16:02:35.673Z,17.66
2023-05-11T16:06:59.656Z,17.56
2023-05-11T16:11:29.229Z,17.55
2023-05-11T16:15:54.092Z,17.54
2023-05-11T16:20:30.092Z,17.51
2023-05-11T16:24:55.054Z,17.46
2023-05-11T16:29:18.931Z,17.39
2023-05-11T16:34:10.033Z,17.30
2023-05-11T16:38:37.951Z,17.23
2023-05-11T16:42:41.613Z,17.17
2023-05-11T16:47:07.533Z,17.10
2023-05-11T16:51:35.590Z,17.05
2023-05-11T16:56:05.919Z,17.01
2023-05-11T17:00:37.617Z,16.94
2023-05-11T17:05:07.169Z,16.85
2023-05-11T17:09:31.179Z,16.73
2023-05-11T17:14:01.618Z,16.66
2023-05-11T17:18:28.570Z,16.65
2023-05-11T17:22:52.605Z,16.64
2023-05-11T17:27:18.444Z,16.61
2023-05-11T17:31:49.737Z,16.55
2023-05-11T17:36:15.152Z,16.41
2023-05-11T17:40:58.965Z,16.28
2023-05-11T17:45:28.842Z,16.15
2023-05-11T17:49:59.625Z,16.03
2023-05-11T17:54:37.716Z,15.90
2023-05-11T17:59:02.691Z,15.76
2023-05-11T18:03:27.758Z,15.66
2023-05-11T18:08:11.554Z,15.55
2023-05-11T18:12:42.364Z,15.49
2023-05-11T18:17:06.329Z,15.39
2023-05-11T18:21:33.764Z,15.28
2023-05-11T18:25:57.803Z,15.13
2023-05-11T18:30:22.861Z,14.79
2023-05-11T18:34:47.005Z,14.52
2023-05-11T18:39:10.845Z,14.30
2023-05-11T18:43:34.895Z,14.05
2023-05-11T18:47:58.944Z,13.83
2023-05-11T18:52:32.677Z,13.60
2023-05-11T18:57:07.531Z,13.38
2023-05-11T19:01:46.715Z,13.27
2023-05-11T19:06:25.353Z,13.08
2023-05-11T19:10:54.985Z,12.97
2023-05-11T19:15:22.452Z,12.81
2023-05-11T19:19:50.519Z,12.60
2023-05-11T19:24:14.441Z,12.28
2023-05-11T19:28:44.554Z,11.98
2023-05-11T19:33:08.403Z,11.77
2023-05-11T19:37:32.613Z,11.57
2023-05-11T19:41:59.708Z,11.43
2023-05-11T19:46:29.572Z,11.33
2023-05-11T19:50:54.460Z,11.24
2023-05-11T19:55:19.344Z,11.17
2023-05-11T19:59:43.333Z,11.13
2023-05-11T20:04:12.574Z,11.01
2023-05-11T20:08:37.618Z,10.89
2023-05-11T20:13:03.633Z,10.80
2023-05-11T20:17:30.569Z,10.78
2023-05-11T20:21:47.370Z,10.79
2023-05-11T20:26:19.988Z,10.84
2023-05-11T20:30:49.754Z,10.84
2023-05-11T20:35:13.677Z,10.75
2023-05-11T20:39:39.996Z,10.61
2023-05-11T20:44:05.914Z,10.44
2023-05-11T20:48:39.733Z,10.38
2023-05-11T20:53:05.410Z,10.34
2023-05-11T20:57:38.218Z,10.31
2023-05-11T21:02:02.256Z,10.23
2023-05-11T21:06:27.267Z,10.17
2023-05-11T21:10:54.681Z,10.07
2023-05-11T21:15:18.567Z,10.06
2023-05-11T21:19:44.588Z,10.05
2023-05-11T21:24:11.474Z,10.02
2023-05-11T21:28:35.428Z,10.00
2023-05-11T21:33:01.589Z,9.98
2023-05-11T21:37:28.699Z,10.06
2023-05-11T21:42:01.607Z,10.08
2023-05-11T21:46:27.591Z,10.12
2023-05-11T21:50:57.503Z,10.13
2023-05-11T21:55:22.424Z,10.17
2023-05-11T21:59:53.062Z,10.11
2023-05-11T22:04:19.064Z,10.13
2023-05-11T22:08:43.123Z,10.08
2023-05-11T22:13:12.217Z,10.07
2023-05-11T22:17:36.671Z,10.13
2023-05-11T22:22:09.916Z,10.13
2023-05-11T22:26:40.821Z,10.10
2023-05-11T22:31:04.804Z,10.12
2023-05-11T22:35:29.949Z,10.20
2023-05-11T22:39:56.039Z,10.23
2023-05-11T22:44:20.935Z,10.27
2023-05-11T22:48:45.964Z,10.28
2023-05-11T22:53:25.779Z,10.30
2023-05-11T22:57:49.631Z,10.29
2023-05-11T23:02:13.633Z,10.28
2023-05-11T23:07:19.411Z,10.23
2023-05-11T23:12:29.115Z,10.18
2023-05-11T23:17:17.541Z,10.13
2023-05-11T23:21:45.738Z,10.09
2023-05-11T23:26:10.908Z,10.05
2023-05-11T23:30:37.294Z,9.95
2023-05-11T23:34:41.981Z,9.82
2023-05-11T23:39:17.806Z,9.70
2023-05-11T23:44:23.739Z,9.53
2023-05-11T23:49:30.552Z,9.34
2023-05-11T23:54:49.924Z,9.17
